Time;durP1;ratioP1;P1;durP2;ratioP2;P2;SDS_P1;SDS_P2;PMS_P1;PMS_P2;Temp;Humidity;BMP_temperature;BMP_pressure;BME280_temperature;BME280_humidity;BME280_pressure;Samples;Min_cycle;Max_cycle;Signal;HPM_P1;HPM_P2
2021/09/15 00:02:08;;;;;;;2.60;2.40;;;23.60;60.00;;;;;;5125926;28;20102;-36
2021/09/15 00:04:35;;;;;;;2.55;2.35;;;23.60;60.10;;;;;;5126000;28;20027;-36
2021/09/15 00:07:01;;;;;;;2.80;2.60;;;23.60;60.30;;;;;;5126044;28;20555;-36
2021/09/15 00:09:27;;;;;;;2.38;2.20;;;23.60;60.50;;;;;;5126018;28;20043;-36
2021/09/15 00:11:54;;;;;;;2.47;2.17;;;23.60;60.60;;;;;;5125722;28;20042;-36
2021/09/15 00:14:21;;;;;;;;;;;23.60;60.70;;;;;;5126628;28;20031;-36
2021/09/15 00:16:47;;;;;;;2.55;2.35;;;23.70;60.80;;;;;;5125796;28;19904;-36
2021/09/15 00:19:13;;;;;;;3.20;2.90;;;23.70;61.10;;;;;;5125912;28;20023;-36
2021/09/15 00:21:39;;;;;;;2.60;2.40;;;23.70;61.20;;;;;;5125814;28;20122;-36
2021/09/15 00:24:05;;;;;;;2.85;2.65;;;23.70;61.30;;;;;;5125506;28;20070;-35
2021/09/15 00:26:32;;;;;;;3.42;3.13;;;23.70;61.40;;;;;;5125802;28;20028;-36
2021/09/15 00:28:58;;;;;;;2.85;2.65;;;23.70;61.50;;;;;;5125263;28;20020;-36
2021/09/15 00:31:24;;;;;;;2.70;2.50;;;23.80;61.60;;;;;;5125417;28;20051;-36
2021/09/15 00:33:50;;;;;;;2.95;2.65;;;23.80;61.70;;;;;;5125413;28;20041;-36
2021/09/15 00:36:16;;;;;;;3.25;2.95;;;23.80;61.70;;;;;;5107082;28;20019;-36
2021/09/15 00:38:43;;;;;;;3.10;2.88;;;23.80;61.80;;;;;;5125603;28;20024;-36
2021/09/15 00:41:09;;;;;;;3.15;2.88;;;23.80;61.80;;;;;;5125665;28;20204;-36
2021/09/15 00:43:58;;;;;;;2.92;2.72;;;23.90;61.90;;;;;;5125295;28;20050;-36
2021/09/15 00:46:24;;;;;;;2.90;2.70;;;23.90;62.00;;;;;;5125175;28;20039;-36
2021/09/15 00:48:50;;;;;;;3.38;3.08;;;23.90;62.00;;;;;;5125122;28;20044;-36
2021/09/15 00:51:16;;;;;;;2.60;2.40;;;23.80;62.10;;;;;;5125401;28;20396;-36
2021/09/15 00:53:42;;;;;;;3.05;2.75;;;23.90;62.20;;;;;;5125088;28;20051;-36
2021/09/15 00:56:08;;;;;;;3.13;2.90;;;23.90;62.30;;;;;;5125188;28;20036;-36
2021/09/15 00:58:35;;;;;;;3.50;3.20;;;23.90;62.50;;;;;;5125002;28;20028;-36
2021/09/15 01:01:01;;;;;;;3.35;3.05;;;23.90;62.60;;;;;;5125124;28;20594;-36
2021/09/15 01:03:27;;;;;;;3.50;3.20;;;23.90;62.70;;;;;;5124625;28;20048;-36
2021/09/15 01:05:53;;;;;;;3.60;3.30;;;23.90;62.70;;;;;;5124302;28;20657;-36
2021/09/15 01:08:19;;;;;;;3.90;3.58;;;24.00;62.80;;;;;;5106573;28;20023;-36
2021/09/15 01:10:46;;;;;;;3.42;3.13;;;24.00;62.70;;;;;;5106335;28;20027;-36
2021/09/15 01:13:15;;;;;;;3.60;3.30;;;23.90;62.80;;;;;;5089436;28;20035;-36
2021/09/15 01:15:41;;;;;;;3.15;2.85;;;24.00;62.80;;;;;;5106455;28;20036;-36
2021/09/15 01:18:17;;;;;;;3.70;3.40;;;24.00;62.90;;;;;;5123241;28;20019;-36
2021/09/15 01:20:43;;;;;;;3.67;3.38;;;24.00;63.00;;;;;;5104237;28;20028;-36
2021/09/15 01:23:09;;;;;;;3.70;3.40;;;24.00;62.90;;;;;;5113931;28;20012;-36
2021/09/15 01:25:36;;;;;;;3.95;3.30;;;24.00;62.90;;;;;;5124542;28;20027;-36
2021/09/15 01:28:02;;;;;;;3.53;3.20;;;24.00;63.00;;;;;;5124520;28;20072;-36
2021/09/15 01:30:28;;;;;;;3.47;3.17;;;24.00;63.00;;;;;;5124491;28;20035;-36
2021/09/15 01:32:54;;;;;;;3.30;3.03;;;24.00;62.90;;;;;;5123640;28;20391;-36
2021/09/15 01:35:20;;;;;;;4.15;3.45;;;24.00;62.90;;;;;;5124384;28;20043;-36
2021/09/15 01:37:46;;;;;;;3.72;3.42;;;24.00;63.10;;;;;;5124495;28;20028;-36
2021/09/15 01:40:13;;;;;;;3.75;3.45;;;24.00;63.30;;;;;;5124285;28;20039;-36
2021/09/15 01:42:39;;;;;;;3.80;3.50;;;24.00;63.50;;;;;;5124147;28;20032;-37
2021/09/15 01:45:10;;;;;;;4.47;4.07;;;24.00;63.40;;;;;;5124535;28;20032;-36
2021/09/15 01:47:36;;;;;;;4.38;3.97;;;24.10;63.50;;;;;;5105829;28;20798;-36
2021/09/15 01:50:03;;;;;;;3.95;3.58;;;24.10;63.50;;;;;;5124023;28;20028;-36
2021/09/15 01:52:31;;;;;;;4.10;3.72;;;24.10;63.50;;;;;;5105949;28;20067;-36
2021/09/15 01:54:58;;;;;;;4.20;3.72;;;24.10;63.50;;;;;;5123975;28;20027;-36
2021/09/15 01:57:24;;;;;;;3.92;3.63;;;24.10;63.60;;;;;;5123891;28;20583;-36
2021/09/15 01:59:50;;;;;;;3.83;3.53;;;24.10;63.50;;;;;;5105721;28;20023;-36
2021/09/15 02:02:16;;;;;;;4.30;3.90;;;24.10;63.50;;;;;;5123961;28;20019;-35
2021/09/15 02:04:42;;;;;;;3.80;3.40;;;24.10;63.60;;;;;;5123895;28;20038;-36
2021/09/15 02:07:09;;;;;;;3.95;3.65;;;24.10;63.80;;;;;;5123839;28;20024;-36
2021/09/15 02:09:35;;;;;;;4.38;4.00;;;24.10;63.80;;;;;;5105559;28;20031;-36
2021/09/15 02:12:01;;;;;;;3.63;3.33;;;24.10;63.90;;;;;;5123902;28;20061;-36
2021/09/15 02:14:28;;;;;;;4.47;4.07;;;24.10;64.60;;;;;;5123522;28;20047;-36
2021/09/15 02:16:54;;;;;;;3.95;3.65;;;24.10;64.00;;;;;;5123620;28;20035;-36
2021/09/15 02:19:20;;;;;;;3.95;3.55;;;24.10;64.10;;;;;;5111914;28;20035;-36
2021/09/15 02:21:46;;;;;;;4.80;4.40;;;24.10;64.10;;;;;;5103598;28;20028;-36
2021/09/15 02:24:12;;;;;;;4.45;4.00;;;24.10;64.10;;;;;;5110975;28;20024;-36
2021/09/15 02:26:38;;;;;;;4.15;3.85;;;24.10;64.10;;;;;;5123650;28;20066;-36
2021/09/15 02:29:05;;;;;;;4.63;4.07;;;24.10;64.00;;;;;;5123588;28;20023;-36
2021/09/15 02:31:31;;;;;;;3.97;3.60;;;24.10;63.90;;;;;;5123636;28;20031;-36
2021/09/15 02:33:57;;;;;;;3.67;3.38;;;24.10;63.90;;;;;;5123367;28;20027;-36
2021/09/15 02:36:25;;;;;;;4.25;3.92;;;24.10;63.90;;;;;;5123460;28;20042;-36
2021/09/15 02:38:51;;;;;;;4.05;3.75;;;24.10;63.80;;;;;;5123531;28;20408;-36
2021/09/15 02:41:17;;;;;;;4.32;3.92;;;24.10;63.80;;;;;;5123497;28;20078;-35
2021/09/15 02:43:44;;;;;;;4.07;3.70;;;24.10;63.90;;;;;;5123220;28;20049;-36
2021/09/15 02:46:10;;;;;;;4.30;3.90;;;24.10;63.90;;;;;;5123513;28;20035;-38
2021/09/15 02:48:36;;;;;;;4.10;3.80;;;24.10;63.90;;;;;;5123334;28;20539;-36
2021/09/15 02:51:03;;;;;;;4.10;3.80;;;24.10;63.90;;;;;;5123299;28;20559;-36
2021/09/15 02:53:29;;;;;;;4.80;4.40;;;24.10;64.00;;;;;;5123245;28;20617;-36
2021/09/15 02:55:55;;;;;;;5.15;4.65;;;24.10;64.00;;;;;;5123153;28;20039;-36
2021/09/15 02:58:22;;;;;;;4.68;4.28;;;24.10;64.20;;;;;;5123116;28;20491;-36
2021/09/15 03:00:48;;;;;;;4.80;4.40;;;24.10;64.20;;;;;;5123321;28;20050;-36
2021/09/15 03:03:14;;;;;;;4.22;3.92;;;24.10;64.20;;;;;;5123104;28;20031;-36
2021/09/15 03:05:40;;;;;;;4.35;3.95;;;24.10;64.10;;;;;;5123274;28;20016;-36
2021/09/15 03:08:06;;;;;;;4.60;4.15;;;24.10;64.00;;;;;;5123225;28;20023;-36
2021/09/15 03:10:32;;;;;;;4.63;4.07;;;24.10;64.00;;;;;;5123221;28;20036;-36
2021/09/15 03:13:01;;;;;;;5.05;4.57;;;24.10;64.00;;;;;;5122869;28;20051;-36
2021/09/15 03:15:28;;;;;;;4.65;4.25;;;24.10;64.00;;;;;;5122326;28;20023;-36
2021/09/15 03:17:54;;;;;;;4.65;4.25;;;24.10;64.10;;;;;;5105239;28;20073;-36
2021/09/15 03:20:20;;;;;;;4.60;4.20;;;24.10;64.20;;;;;;5123068;28;20026;-37
2021/09/15 03:22:46;;;;;;;4.75;4.35;;;24.10;64.20;;;;;;5123310;28;20037;-37
2021/09/15 03:25:12;;;;;;;4.72;4.32;;;24.10;64.50;;;;;;5122892;28;20027;-36
2021/09/15 03:27:38;;;;;;;5.32;4.82;;;24.10;64.70;;;;;;5122655;28;20027;-36
2021/09/15 03:30:05;;;;;;;5.25;4.75;;;24.10;64.60;;;;;;5126691;28;20031;-36
2021/09/15 03:32:31;;;;;;;4.75;4.35;;;24.10;64.60;;;;;;5126934;28;20065;-36
2021/09/15 03:34:58;;;;;;;5.32;4.82;;;24.10;64.50;;;;;;5126612;28;20028;-36
2021/09/15 03:37:24;;;;;;;4.60;4.20;;;24.10;64.50;;;;;;5127017;28;20027;-36
2021/09/15 03:39:50;;;;;;;4.72;4.32;;;24.10;64.40;;;;;;5126742;28;20114;-36
2021/09/15 03:42:16;;;;;;;4.43;4.03;;;24.10;64.40;;;;;;5126242;28;20028;-36
2021/09/15 03:44:42;;;;;;;4.82;4.43;;;24.10;64.40;;;;;;5126464;28;20024;-36
2021/09/15 03:47:08;;;;;;;4.47;4.07;;;24.10;64.40;;;;;;5126697;28;20026;-36
2021/09/15 03:49:34;;;;;;;4.90;4.50;;;24.10;64.30;;;;;;5126408;28;20063;-39
2021/09/15 03:52:01;;;;;;;4.43;4.10;;;24.10;64.30;;;;;;5126532;28;20059;-36
2021/09/15 03:54:27;;;;;;;5.30;4.80;;;24.10;64.30;;;;;;5126036;28;20031;-36
2021/09/15 03:56:53;;;;;;;5.43;4.93;;;24.10;64.40;;;;;;5126270;28;20053;-36
2021/09/15 03:59:19;;;;;;;4.80;4.40;;;24.10;64.30;;;;;;5126254;28;20052;-37
2021/09/15 04:01:45;;;;;;;4.82;4.40;;;24.10;64.20;;;;;;5126325;28;20765;-36
2021/09/15 04:04:11;;;;;;;4.78;4.30;;;24.10;64.30;;;;;;5125955;28;20027;-36
2021/09/15 04:06:38;;;;;;;5.22;4.75;;;24.10;64.20;;;;;;5126304;28;20031;-36
2021/09/15 04:09:05;;;;;;;5.17;4.77;;;24.10;64.20;;;;;;5126383;28;20031;-36
2021/09/15 04:11:31;;;;;;;4.70;4.30;;;24.10;64.10;;;;;;5126122;28;20484;-36
2021/09/15 04:13:57;;;;;;;4.88;4.38;;;24.10;64.10;;;;;;5125317;28;20049;-36
2021/09/15 04:16:23;;;;;;;5.00;4.60;;;24.10;64.10;;;;;;5125754;28;20124;-36
2021/09/15 04:18:49;;;;;;;5.18;4.75;;;24.10;64.10;;;;;;5125866;28;20035;-36
2021/09/15 04:21:15;;;;;;;5.65;5.05;;;24.10;64.00;;;;;;5125792;28;20027;-36
2021/09/15 04:31:40;;;;;;;5.10;4.70;;;24.00;64.30;;;;;;5125768;28;20047;-36
2021/09/15 04:34:06;;;;;;;5.97;5.40;;;24.00;64.30;;;;;;5125663;28;20058;-36
2021/09/15 04:36:32;;;;;;;5.50;5.00;;;24.10;64.60;;;;;;5125489;28;20729;-36
2021/09/15 04:38:58;;;;;;;4.90;4.50;;;24.00;64.30;;;;;;5125300;28;20020;-36
2021/09/15 04:41:24;;;;;;;5.65;5.15;;;24.00;64.30;;;;;;5124806;28;20043;-36
2021/09/15 04:43:51;;;;;;;5.60;5.10;;;24.00;64.50;;;;;;5125220;28;20035;-36
2021/09/15 04:46:17;;;;;;;5.38;4.88;;;24.00;64.60;;;;;;5125270;28;20030;-36
2021/09/15 04:48:43;;;;;;;5.55;5.07;;;24.00;64.50;;;;;;5125152;28;20043;-36
2021/09/15 04:51:11;;;;;;;5.55;4.97;;;24.00;64.50;;;;;;5125326;28;20031;-36
2021/09/15 04:53:37;;;;;;;5.65;5.15;;;24.00;64.30;;;;;;5125066;28;20019;-36
2021/09/15 04:56:04;;;;;;;4.95;4.45;;;24.00;64.30;;;;;;5124767;28;20054;-36
2021/09/15 04:58:30;;;;;;;4.80;4.40;;;24.00;64.10;;;;;;5125112;28;20019;-36
2021/09/15 05:00:56;;;;;;;5.22;4.75;;;24.00;64.20;;;;;;5125215;28;20031;-36
2021/09/15 05:03:23;;;;;;;5.10;4.68;;;24.00;64.10;;;;;;5125050;28;20027;-36
2021/09/15 05:05:49;;;;;;;5.00;4.60;;;24.00;64.10;;;;;;5124844;28;20062;-36
2021/09/15 05:08:15;;;;;;;5.40;5.00;;;24.00;64.00;;;;;;5124944;28;20051;-36
2021/09/15 05:10:41;;;;;;;4.90;4.50;;;24.00;64.10;;;;;;5124855;28;20036;-36
2021/09/15 05:13:07;;;;;;;5.28;4.78;;;24.00;64.00;;;;;;5124824;28;20035;-36
2021/09/15 05:15:34;;;;;;;5.22;4.72;;;24.00;64.00;;;;;;5124509;28;20087;-36
2021/09/15 05:18:00;;;;;;;5.20;4.70;;;24.00;64.00;;;;;;5124810;28;20045;-36
2021/09/15 05:20:26;;;;;;;5.40;4.90;;;24.00;64.00;;;;;;5124821;28;20360;-36
2021/09/15 05:22:53;;;;;;;5.20;4.72;;;24.00;64.00;;;;;;5124461;28;20030;-36
2021/09/15 05:25:20;;;;;;;5.32;4.82;;;23.90;63.90;;;;;;5123897;28;20431;-36
2021/09/15 05:27:46;;;;;;;5.25;4.75;;;24.00;64.10;;;;;;5124364;28;20032;-36
2021/09/15 05:30:13;;;;;;;5.03;4.63;;;23.90;64.00;;;;;;5124538;28;20157;-36
2021/09/15 05:32:39;;;;;;;4.85;4.45;;;23.90;63.90;;;;;;5124568;28;20046;-35
2021/09/15 05:35:06;;;;;;;5.03;4.63;;;23.90;64.00;;;;;;5124116;28;20070;-36
2021/09/15 05:37:33;;;;;;;6.93;4.65;;;23.90;64.00;;;;;;5124273;28;20053;-36
2021/09/15 05:39:59;;;;;;;5.60;5.10;;;23.90;64.10;;;;;;5124328;28;20049;-36
2021/09/15 05:42:26;;;;;;;5.32;4.82;;;23.90;64.00;;;;;;5124106;28;20032;-36
2021/09/15 05:44:52;;;;;;;5.28;4.88;;;23.90;63.80;;;;;;5123971;28;20087;-36
2021/09/15 05:47:18;;;;;;;5.28;4.78;;;23.90;63.80;;;;;;5123944;28;20027;-36
2021/09/15 05:49:45;;;;;;;5.30;4.80;;;23.90;63.80;;;;;;5123998;28;20603;-36
2021/09/15 05:52:11;;;;;;;5.07;4.68;;;23.90;63.80;;;;;;5123339;28;20035;-36
2021/09/15 05:54:37;;;;;;;5.38;4.88;;;23.80;63.80;;;;;;5124128;28;20039;-38
2021/09/15 05:57:03;;;;;;;5.25;4.75;;;23.90;63.80;;;;;;5123860;28;20057;-36
2021/09/15 05:59:29;;;;;;;5.67;5.17;;;23.90;63.80;;;;;;5123793;28;20131;-36
2021/09/15 06:01:55;;;;;;;5.35;4.85;;;23.90;63.80;;;;;;5123601;28;20043;-36
2021/09/15 06:04:22;;;;;;;5.53;5.03;;;23.80;63.80;;;;;;5123886;28;20111;-36
2021/09/15 06:06:48;;;;;;;4.97;4.50;;;23.90;63.90;;;;;;5123300;28;20031;-37
2021/09/15 06:09:14;;;;;;;5.35;4.90;;;23.80;63.80;;;;;;5123872;28;20064;-36
2021/09/15 06:11:40;;;;;;;5.75;5.25;;;23.90;63.90;;;;;;5123719;28;20035;-36
2021/09/15 06:14:06;;;;;;;5.50;5.00;;;23.90;63.90;;;;;;5123478;28;20026;-36
2021/09/15 06:16:32;;;;;;;4.93;4.53;;;23.80;63.80;;;;;;5123433;28;20042;-36
2021/09/15 06:18:58;;;;;;;5.53;5.03;;;23.80;63.90;;;;;;5123492;28;20022;-36
2021/09/15 06:21:25;;;;;;;5.60;5.10;;;23.80;63.90;;;;;;5123181;28;20511;-36
2021/09/15 06:23:53;;;;;;;5.55;5.05;;;23.80;63.90;;;;;;5122979;28;20050;-37
2021/09/15 06:26:24;;;;;;;5.30;4.80;;;23.80;63.90;;;;;;5121194;28;20026;-37
2021/09/15 06:28:51;;;;;;;5.95;5.35;;;23.80;63.90;;;;;;5123457;28;20023;-36
2021/09/15 06:31:17;;;;;;;5.45;5.00;;;23.80;63.90;;;;;;5123373;28;20042;-36
2021/09/15 06:33:43;;;;;;;5.70;5.20;;;23.80;63.90;;;;;;5123306;28;20028;-36
2021/09/15 06:36:09;;;;;;;5.90;5.40;;;23.80;63.90;;;;;;5123073;28;20028;-36
2021/09/15 06:38:36;;;;;;;5.18;4.68;;;23.80;63.90;;;;;;5123320;28;20031;-36
2021/09/15 06:41:02;;;;;;;5.13;4.63;;;23.70;63.90;;;;;;5105054;28;20027;-36
2021/09/15 06:43:28;;;;;;;5.68;5.18;;;23.80;63.90;;;;;;5123085;28;20049;-36
2021/09/15 06:45:54;;;;;;;5.53;5.03;;;23.70;63.90;;;;;;5123334;28;20091;-36
2021/09/15 06:48:20;;;;;;;5.38;4.88;;;23.70;63.90;;;;;;5119407;28;20048;-36
2021/09/15 06:50:47;;;;;;;5.88;5.28;;;23.70;63.90;;;;;;5102651;28;20039;-36
2021/09/15 06:53:13;;;;;;;5.68;5.00;;;23.70;64.00;;;;;;5102689;28;20043;-36
2021/09/15 06:55:40;;;;;;;5.40;4.90;;;23.70;63.90;;;;;;5102001;28;20110;-36
2021/09/15 06:58:06;;;;;;;5.65;5.15;;;23.70;63.90;;;;;;5101561;28;20062;-36
2021/09/15 07:00:32;;;;;;;5.38;4.88;;;23.70;63.90;;;;;;5102584;28;20554;-36
2021/09/15 07:02:58;;;;;;;5.47;5.03;;;23.70;64.00;;;;;;5102871;28;20032;-36
2021/09/15 07:05:24;;;;;;;5.78;5.28;;;23.70;64.00;;;;;;5110847;28;20028;-36
2021/09/15 07:07:51;;;;;;;6.28;5.78;;;23.70;64.00;;;;;;5106539;28;20031;-36
2021/09/15 07:10:18;;;;;;;5.60;5.10;;;23.70;64.10;;;;;;5106616;28;20020;-36
2021/09/15 07:12:46;;;;;;;6.32;5.72;;;23.70;64.00;;;;;;5113155;28;20040;-36
2021/09/15 07:15:12;;;;;;;5.45;4.95;;;23.70;64.00;;;;;;5126788;28;20023;-36
2021/09/15 07:17:38;;;;;;;5.80;5.30;;;23.70;64.10;;;;;;5126716;28;20144;-36
2021/09/15 07:20:05;;;;;;;5.70;5.20;;;23.60;64.10;;;;;;5108523;28;20034;-42
2021/09/15 07:22:31;;;;;;;5.82;5.32;;;23.70;64.20;;;;;;5106447;28;20035;-36
2021/09/15 07:24:57;;;;;;;5.85;5.30;;;23.60;64.10;;;;;;5106379;28;20056;-36
2021/09/15 07:27:23;;;;;;;6.28;5.78;;;23.60;64.10;;;;;;5105995;28;20035;-36
2021/09/15 07:29:49;;;;;;;6.00;5.50;;;23.60;64.20;;;;;;5106197;28;20032;-36
2021/09/15 07:32:16;;;;;;;6.03;5.35;;;23.60;64.20;;;;;;5121198;28;20036;-36
2021/09/15 07:34:44;;;;;;;5.65;5.15;;;23.60;64.20;;;;;;5126681;28;20035;-36
2021/09/15 07:37:14;;;;;;;5.30;4.80;;;23.60;64.20;;;;;;5108005;28;20027;-36
2021/09/15 07:39:41;;;;;;;6.15;5.55;;;23.60;64.30;;;;;;5126519;28;20059;-36
2021/09/15 07:42:07;;;;;;;6.30;5.70;;;23.60;64.30;;;;;;5124817;28;20091;-36
2021/09/15 07:44:33;;;;;;;5.90;5.40;;;23.60;64.30;;;;;;5105807;28;20268;-36
2021/09/15 07:46:59;;;;;;;6.30;5.70;;;23.60;64.40;;;;;;5105923;28;20285;-36
2021/09/15 07:49:26;;;;;;;6.05;5.45;;;23.60;64.40;;;;;;5105209;28;20052;-36
2021/09/15 07:51:53;;;;;;;6.05;5.55;;;23.60;64.30;;;;;;5105607;28;20040;-36
2021/09/15 07:54:19;;;;;;;6.63;5.68;;;23.60;64.40;;;;;;5105819;28;20026;-36
2021/09/15 07:56:46;;;;;;;5.82;5.32;;;23.60;64.40;;;;;;5105487;28;20042;-36
2021/09/15 07:59:12;;;;;;;6.13;5.63;;;23.60;64.40;;;;;;5105513;28;20024;-37
2021/09/15 08:01:38;;;;;;;6.35;5.78;;;23.60;65.20;;;;;;5105673;28;20028;-36
2021/09/15 08:04:04;;;;;;;6.20;5.60;;;23.60;64.50;;;;;;5105496;28;20032;-36
2021/09/15 08:06:30;;;;;;;6.00;5.50;;;23.60;64.50;;;;;;5105667;28;20028;-36
2021/09/15 08:08:56;;;;;;;6.22;5.63;;;23.50;64.50;;;;;;5105229;28;20054;-37
2021/09/15 08:11:23;;;;;;;5.78;5.28;;;23.50;64.50;;;;;;5105222;28;20066;-37
2021/09/15 08:13:51;;;;;;;6.55;5.95;;;23.50;64.50;;;;;;5120597;28;20050;-36
2021/09/15 08:16:17;;;;;;;6.25;5.65;;;23.50;64.50;;;;;;5125663;28;20069;-36
2021/09/15 08:18:43;;;;;;;6.38;5.78;;;23.50;64.60;;;;;;5118650;28;20017;-36
2021/09/15 08:21:09;;;;;;;6.68;6.07;;;23.50;64.60;;;;;;5104821;28;20031;-36
2021/09/15 08:23:35;;;;;;;6.38;5.75;;;23.50;64.70;;;;;;5105195;28;20050;-37
2021/09/15 08:26:02;;;;;;;6.20;5.60;;;23.50;64.60;;;;;;5107591;28;20052;-36
2021/09/15 08:28:28;;;;;;;6.25;5.65;;;23.50;64.60;;;;;;5104823;28;20405;-36
2021/09/15 08:30:54;;;;;;;6.68;6.07;;;23.50;64.60;;;;;;5104983;28;20035;-36
2021/09/15 08:33:20;;;;;;;7.45;6.28;;;23.50;64.60;;;;;;5105171;28;20473;-36
2021/09/15 08:35:46;;;;;;;6.25;5.63;;;23.50;64.70;;;;;;5104608;28;20020;-36
2021/09/15 08:38:13;;;;;;;6.43;5.82;;;23.50;64.70;;;;;;5104840;28;20046;-36
2021/09/15 08:40:39;;;;;;;6.67;6.07;;;23.50;64.80;;;;;;5104898;28;20540;-36
2021/09/15 08:43:06;;;;;;;6.57;5.90;;;23.40;64.70;;;;;;5104717;28;20189;-36
2021/09/15 08:45:32;;;;;;;6.60;6.00;;;23.40;64.70;;;;;;5104767;28;20028;-36
2021/09/15 08:48:00;;;;;;;6.50;5.95;;;23.40;64.70;;;;;;5106305;28;20028;-36
2021/09/15 08:50:26;;;;;;;6.07;5.53;;;23.40;64.80;;;;;;5108506;27;20024;-36
2021/09/15 08:52:52;;;;;;;6.57;5.97;;;23.40;64.80;;;;;;5145543;27;20095;-36
2021/09/15 08:55:18;;;;;;;6.63;6.05;;;23.40;64.80;;;;;;5145388;27;20049;-36
2021/09/15 08:57:45;;;;;;;6.85;6.15;;;23.40;64.80;;;;;;5145372;27;20816;-36
2021/09/15 09:00:11;;;;;;;6.32;5.72;;;23.40;64.80;;;;;;5145163;27;20019;-36
2021/09/15 09:02:43;;;;;;;6.07;5.47;;;23.40;64.80;;;;;;5145446;27;20467;-36
2021/09/15 09:05:10;;;;;;;6.65;6.05;;;23.40;64.80;;;;;;5145444;27;20113;-36
2021/09/15 09:07:36;;;;;;;6.60;6.00;;;23.30;64.80;;;;;;5145102;27;20058;-36
2021/09/15 09:10:10;;;;;;;6.82;6.22;;;23.30;64.80;;;;;;5135159;27;20332;-36
2021/09/15 09:12:37;;;;;;;6.30;5.78;;;23.30;65.30;;;;;;5124334;28;20040;-36
2021/09/15 09:15:20;;;;;;;;;;;23.30;64.90;;;;;;5124900;28;20034;-36
2021/09/15 09:17:47;;;;;;;6.40;5.80;;;23.30;64.90;;;;;;5124817;28;19926;-36
2021/09/15 09:20:28;;;;;;;6.63;5.97;;;23.30;64.90;;;;;;5124224;28;20035;-36
2021/09/15 09:23:06;;;;;;;6.68;6.15;;;23.30;64.90;;;;;;5103990;28;20571;-36
2021/09/15 09:25:42;;;;;;;6.50;5.90;;;23.30;64.90;;;;;;5103389;28;20036;-36
2021/09/15 09:28:44;;;;;;;6.40;5.80;;;23.30;64.90;;;;;;5103708;28;20846;-36
2021/09/15 09:31:11;;;;;;;6.90;6.20;;;23.30;64.90;;;;;;5100241;28;20040;-36
2021/09/15 09:33:38;;;;;;;6.82;6.15;;;23.30;65.00;;;;;;5103715;28;20032;-36
2021/09/15 09:36:07;;;;;;;6.65;6.05;;;23.30;65.00;;;;;;5103558;28;20763;-36
2021/09/15 09:38:38;;;;;;;6.15;5.65;;;23.30;65.00;;;;;;5113106;28;20030;-36
2021/09/15 09:41:11;;;;;;;6.57;5.90;;;23.30;65.10;;;;;;5123769;28;20024;-36
2021/09/15 09:43:48;;;;;;;6.38;5.80;;;23.30;65.10;;;;;;5123802;28;20039;-36
2021/09/15 09:46:24;;;;;;;6.72;6.13;;;23.20;65.00;;;;;;5123930;28;20073;-36
2021/09/15 09:48:54;;;;;;;7.10;6.40;;;23.20;65.00;;;;;;5123674;28;20043;-36
2021/09/15 09:51:29;;;;;;;6.95;6.35;;;23.20;65.10;;;;;;5123576;28;20039;-36
2021/09/15 09:54:09;;;;;;;6.43;5.82;;;23.20;65.00;;;;;;5123679;28;20080;-36
2021/09/15 09:56:36;;;;;;;6.90;6.28;;;23.20;65.10;;;;;;5123615;28;20133;-36
2021/09/15 09:59:06;;;;;;;6.53;5.93;;;23.20;65.10;;;;;;5123297;28;20051;-36
2021/09/15 10:01:53;;;;;;;6.57;6.05;;;23.20;65.20;;;;;;5123806;28;20038;-36
2021/09/15 10:04:19;;;;;;;7.07;6.47;;;23.20;65.10;;;;;;5105948;28;20024;-36
2021/09/15 10:06:46;;;;;;;6.65;6.05;;;23.20;65.20;;;;;;5088596;28;20035;-36
2021/09/15 10:09:12;;;;;;;7.28;6.60;;;23.20;65.20;;;;;;5123334;28;20546;-36
2021/09/15 10:11:39;;;;;;;6.68;6.07;;;23.20;65.20;;;;;;5123488;28;20053;-36
2021/09/15 10:14:07;;;;;;;;;;;23.20;65.20;;;;;;5105651;28;20031;-36
2021/09/15 10:16:35;;;;;;;7.05;6.40;;;23.20;65.30;;;;;;5123539;28;19908;-36
2021/09/15 10:19:04;;;;;;;6.80;6.20;;;23.20;65.30;;;;;;5104585;28;20686;-36
2021/09/15 10:21:32;;;;;;;6.82;6.10;;;23.20;65.30;;;;;;5122943;28;20035;-36
2021/09/15 10:23:59;;;;;;;6.93;6.32;;;23.20;65.30;;;;;;5123312;28;20075;-36
2021/09/15 10:26:25;;;;;;;6.70;6.10;;;23.10;65.30;;;;;;5123400;28;20036;-36
2021/09/15 10:29:16;;;;;;;6.90;6.30;;;23.20;65.30;;;;;;5123161;28;20639;-36
2021/09/15 10:32:08;;;;;;;6.57;5.97;;;23.20;65.30;;;;;;5123099;28;20123;-36
2021/09/15 10:34:37;;;;;;;6.05;5.50;;;23.10;65.30;;;;;;5113858;28;20035;-36
2021/09/15 10:37:13;;;;;;;6.20;5.70;;;23.10;65.30;;;;;;5122907;28;20028;-36
2021/09/15 10:39:55;;;;;;;7.30;6.60;;;23.10;65.30;;;;;;5123111;28;20023;-36
2021/09/15 10:42:46;;;;;;;6.85;6.25;;;23.10;65.40;;;;;;5122948;28;20028;-36
2021/09/15 10:45:26;;;;;;;7.05;6.35;;;23.10;65.40;;;;;;5123040;28;20036;-36
2021/09/15 10:48:00;;;;;;;7.38;6.68;;;23.10;65.40;;;;;;5122985;28;20015;-37
2021/09/15 10:50:33;;;;;;;7.25;6.55;;;23.10;65.40;;;;;;5103412;28;20068;-36
2021/09/15 10:53:08;;;;;;;7.13;6.53;;;23.10;65.40;;;;;;5123090;28;20042;-36
2021/09/15 10:55:41;;;;;;;7.22;6.63;;;23.10;65.40;;;;;;5122919;28;20092;-36
2021/09/15 10:58:18;;;;;;;7.38;6.68;;;23.10;65.50;;;;;;5123065;28;20032;-36
2021/09/15 11:00:58;;;;;;;7.33;6.60;;;23.10;65.50;;;;;;5122714;28;20031;-36
2021/09/15 11:03:34;;;;;;;6.97;6.38;;;23.10;65.50;;;;;;5122937;28;20028;-36
2021/09/15 11:06:06;;;;;;;6.68;6.07;;;23.10;65.50;;;;;;5123059;28;20040;-37
2021/09/15 11:08:39;;;;;;;7.55;6.85;;;23.10;65.60;;;;;;5123030;28;20032;-36
2021/09/15 11:11:27;;;;;;;7.03;6.43;;;23.10;65.60;;;;;;5122677;28;20035;-36
2021/09/15 11:14:00;;;;;;;7.15;6.47;;;23.10;65.60;;;;;;5122768;28;20023;-36
2021/09/15 11:16:31;;;;;;;7.68;6.88;;;23.00;65.60;;;;;;5122955;28;20035;-36
2021/09/15 11:19:17;;;;;;;7.05;6.35;;;23.00;65.60;;;;;;5122677;28;20035;-36
2021/09/15 11:21:55;;;;;;;7.22;6.60;;;23.00;65.60;;;;;;5121896;28;20518;-36
2021/09/15 11:24:23;;;;;;;6.63;6.03;;;23.00;65.80;;;;;;5122669;28;20027;-36
2021/09/15 11:26:57;;;;;;;7.10;6.50;;;23.00;65.60;;;;;;5104681;28;20119;-36
2021/09/15 11:29:48;;;;;;;6.72;6.13;;;23.00;65.60;;;;;;5122807;28;20031;-36
2021/09/15 11:32:15;;;;;;;7.00;6.40;;;23.00;65.70;;;;;;5122527;28;20032;-36
2021/09/15 11:34:48;;;;;;;7.15;6.40;;;23.00;66.40;;;;;;5122649;28;20024;-36
2021/09/15 11:37:18;;;;;;;6.70;6.10;;;23.00;65.70;;;;;;5104400;28;20120;-36
2021/09/15 11:40:11;;;;;;;7.15;6.45;;;23.00;65.70;;;;;;5104057;28;20118;-36
2021/09/15 11:42:37;;;;;;;6.70;6.10;;;23.00;65.70;;;;;;5122131;28;20035;-36
2021/09/15 11:45:16;;;;;;;7.47;6.80;;;23.00;65.80;;;;;;5122543;28;20039;-36
2021/09/15 11:47:47;;;;;;;6.57;6.03;;;23.00;65.80;;;;;;5122089;28;20031;-36
2021/09/15 11:50:17;;;;;;;6.63;6.03;;;23.00;65.80;;;;;;5124614;28;20050;-36
2021/09/15 11:52:46;;;;;;;6.93;6.22;;;23.00;65.80;;;;;;5105444;28;20024;-36
2021/09/15 11:55:14;;;;;;;7.25;6.47;;;23.00;65.90;;;;;;5105804;28;20427;-36
2021/09/15 11:57:50;;;;;;;7.30;6.70;;;23.00;66.60;;;;;;5105767;28;20062;-36
2021/09/15 12:00:16;;;;;;;6.47;5.88;;;23.00;65.90;;;;;;5105260;28;20016;-36
2021/09/15 12:02:47;;;;;;;7.20;6.50;;;23.00;65.90;;;;;;5105452;28;20088;-36
2021/09/15 12:05:13;;;;;;;7.38;6.72;;;23.00;65.90;;;;;;5087954;28;20035;-41
2021/09/15 12:07:40;;;;;;;7.15;6.50;;;23.00;65.90;;;;;;5087153;28;20034;-36
2021/09/15 12:10:07;;;;;;;7.18;6.55;;;23.00;66.00;;;;;;5105519;28;20024;-36
2021/09/15 12:12:37;;;;;;;7.53;6.75;;;22.90;65.80;;;;;;5070281;28;20056;-36
2021/09/15 12:15:04;;;;;;;6.88;6.10;;;22.90;65.80;;;;;;5087291;28;20024;-35
2021/09/15 12:17:30;;;;;;;7.25;6.65;;;22.90;65.90;;;;;;5115370;28;20035;-36
2021/09/15 12:19:56;;;;;;;6.55;5.95;;;23.00;66.00;;;;;;5107596;28;20059;-36
2021/09/15 12:22:26;;;;;;;7.30;6.60;;;22.90;65.90;;;;;;5125667;28;20016;-36
2021/09/15 12:24:59;;;;;;;6.65;6.00;;;22.90;65.90;;;;;;5125577;28;20044;-36
2021/09/15 12:27:25;;;;;;;6.85;6.18;;;22.90;65.90;;;;;;5125296;28;20016;-36
2021/09/15 12:30:11;;;;;;;7.43;6.68;;;22.90;65.90;;;;;;5125796;28;20084;-36
2021/09/15 12:32:38;;;;;;;6.93;6.22;;;22.90;66.00;;;;;;5125117;28;20028;-36
2021/09/15 12:35:18;;;;;;;;;;;22.90;65.90;;;;;;5107752;28;20035;-36
2021/09/15 12:37:45;;;;;;;6.90;6.30;;;22.90;66.00;;;;;;5125619;28;19954;-36
2021/09/15 12:40:18;;;;;;;7.32;6.72;;;22.90;66.70;;;;;;5125270;28;20038;-36
2021/09/15 12:43:17;;;;;;;6.97;6.38;;;22.90;66.00;;;;;;5125054;28;20031;-36
2021/09/15 12:45:46;;;;;;;6.68;6.07;;;22.90;66.00;;;;;;5107403;28;20043;-36
2021/09/15 12:48:16;;;;;;;7.00;6.40;;;22.90;66.00;;;;;;5124892;28;20040;-36
2021/09/15 12:50:48;;;;;;;6.57;5.97;;;22.90;66.00;;;;;;5107038;28;20099;-36
2021/09/15 12:53:14;;;;;;;6.72;6.13;;;22.90;66.00;;;;;;5124836;28;20078;-36
2021/09/15 12:55:45;;;;;;;6.95;6.28;;;22.90;66.00;;;;;;5124996;28;20053;-36
2021/09/15 12:58:12;;;;;;;6.90;6.20;;;22.90;66.10;;;;;;5125035;28;20031;-36
2021/09/15 13:00:45;;;;;;;7.10;6.40;;;22.90;66.00;;;;;;5124060;28;20049;-36
2021/09/15 13:03:12;;;;;;;7.25;6.65;;;22.90;66.00;;;;;;5124749;28;20050;-36